Time;durP1;ratioP1;P1;durP2;ratioP2;P2;SDS_P1;SDS_P2;PMS_P1;PMS_P2;Temp;Humidity;BMP_temperature;BMP_pressure;BME280_temperature;BME280_humidity;BME280_pressure;Samples;Min_cycle;Max_cycle;Signal;HPM_P1;HPM_P2
2021/12/30 00:00:53;;;;;;;111.13;58.83;;;;;;;1.86;82.46;98436.26;2249202;78;21003;-83
2021/12/30 00:03:53;;;;;;;110.77;58.13;;;;;;;1.89;82.27;98437.25;2249920;79;21364;-82
2021/12/30 00:06:54;;;;;;;109.37;61.13;;;;;;;1.89;82.10;98442.41;2250318;79;20928;-82
2021/12/30 00:09:54;;;;;;;122.20;63.43;;;;;;;1.89;82.05;98447.95;2249514;78;21372;-83
2021/12/30 00:12:55;;;;;;;112.90;62.97;;;;;;;1.90;82.12;98444.16;2250496;79;20928;-83
2021/12/30 00:15:55;;;;;;;111.97;61.60;;;;;;;1.91;82.09;98447.20;2249388;78;21325;-82
2021/12/30 00:18:56;;;;;;;109.03;58.83;;;;;;;1.93;82.13;98454.11;2249647;78;20984;-83
2021/12/30 00:21:56;;;;;;;111.90;59.83;;;;;;;1.92;81.99;98454.52;2249309;79;20960;-83
2021/12/30 00:24:57;;;;;;;117.20;62.30;;;;;;;1.90;82.00;98457.03;2249055;79;21066;-83
2021/12/30 00:27:57;;;;;;;116.77;61.63;;;;;;;1.93;82.18;98456.68;2250204;79;20970;-83
2021/12/30 00:30:58;;;;;;;108.40;60.17;;;;;;;1.93;82.18;98461.42;2249769;79;20980;-83
2021/12/30 00:33:58;;;;;;;109.47;58.47;;;;;;;1.95;82.28;98464.93;2250017;79;20960;-83
2021/12/30 00:36:59;;;;;;;109.30;58.40;;;;;;;1.95;82.11;98475.64;2249574;79;20955;-82
2021/12/30 00:39:59;;;;;;;109.80;58.63;;;;;;;1.93;82.09;98468.27;2249303;78;21363;-82
2021/12/30 00:43:00;;;;;;;111.57;58.07;;;;;;;1.90;82.06;98470.30;2249187;79;21272;-84
2021/12/30 00:46:00;;;;;;;118.20;62.63;;;;;;;1.88;82.19;98466.39;2249586;79;20937;-82
2021/12/30 00:49:01;;;;;;;113.60;60.30;;;;;;;1.94;82.31;98479.03;2249258;79;21325;-84
2021/12/30 00:52:01;;;;;;;120.70;61.03;;;;;;;1.95;82.27;98483.36;2249566;79;20952;-83
2021/12/30 00:55:02;;;;;;;113.77;58.63;;;;;;;1.98;82.31;98487.34;2252317;77;20987;-83
2021/12/30 00:58:02;;;;;;;113.97;58.33;;;;;;;1.98;82.10;98483.07;2281106;78;20954;-83
2021/12/30 01:01:04;;;;;;;109.97;59.37;;;;;;;1.96;82.05;98477.39;2281558;78;20946;-81
2021/12/30 01:04:07;;;;;;;118.10;61.40;;;;;;;1.97;82.08;98474.00;2259218;78;20946;-82
2021/12/30 01:07:07;;;;;;;117.93;61.87;;;;;;;1.98;82.33;98472.77;2281438;78;20946;-84
2021/12/30 01:10:08;;;;;;;119.00;64.03;;;;;;;2.01;82.44;98472.02;2281883;78;20950;-83
2021/12/30 01:13:15;;;;;;;114.80;61.77;;;;;;;2.01;82.55;98468.16;2281532;78;20977;-82
2021/12/30 01:16:23;;;;;;;121.57;61.40;;;;;;;2.02;82.65;98464.35;2280699;78;21022;-83
2021/12/30 01:19:42;;;;;;;114.17;63.57;;;;;;;2.04;82.82;98471.73;2280148;78;21037;-82
2021/12/30 01:22:18;;;;;;;120.67;65.57;;;;;;;2.04;82.57;98471.73;2279037;78;21646;-83
2021/12/30 01:25:18;;;;;;;128.20;69.17;;;;;;;2.08;82.73;98478.75;2281769;78;20957;-84
2021/12/30 01:28:19;;;;;;;124.07;68.00;;;;;;;2.12;82.88;98484.48;2281885;78;20950;-83
2021/12/30 01:31:19;;;;;;;118.63;64.03;;;;;;;2.21;83.13;98490.41;2282312;78;20894;-83
2021/12/30 01:34:20;;;;;;;113.87;61.53;;;;;;;2.25;83.01;98489.70;2282462;78;20950;-82
2021/12/30 01:37:23;;;;;;;119.20;61.37;;;;;;;2.24;82.59;98490.52;2282504;78;20972;-82
2021/12/30 01:40:23;;;;;;;121.90;63.30;;;;;;;2.25;82.63;98490.99;2283188;78;21002;-84
2021/12/30 01:43:23;;;;;;;121.73;64.53;;;;;;;2.23;82.60;98496.08;2282598;78;20986;-83
2021/12/30 01:46:24;;;;;;;114.37;62.70;;;;;;;2.24;82.68;98487.95;2282317;78;21338;-83
2021/12/30 01:49:24;;;;;;;119.23;63.90;;;;;;;2.22;82.67;98488.30;2282033;78;21326;-83
2021/12/30 01:52:25;;;;;;;109.63;61.60;;;;;;;2.22;82.83;98483.15;2282325;78;20945;-84
2021/12/30 01:55:25;;;;;;;115.97;61.80;;;;;;;2.22;82.79;98483.15;2277774;78;20992;-83
2021/12/30 01:58:26;;;;;;;115.73;61.93;;;;;;;2.19;82.97;98477.88;2250486;79;20932;-85
2021/12/30 02:01:26;;;;;;;112.27;61.90;;;;;;;2.11;83.01;98472.44;2250243;79;20912;-83
2021/12/30 02:35:15;;;;;;;100.70;51.60;;;;;;;2.02;83.20;98499.52;2299586;77;22629;-82
2021/12/30 02:38:15;;;;;;;94.53;52.87;;;;;;;1.99;83.46;98494.25;2265339;78;20975;-81
2021/12/30 02:41:18;;;;;;;88.13;49.17;;;;;;;2.03;83.71;98491.86;2265367;79;20960;-83
2021/12/30 02:44:18;;;;;;;93.83;49.47;;;;;;;2.08;84.02;98494.61;2265446;78;20960;-82
2021/12/30 02:47:19;;;;;;;91.30;51.87;;;;;;;2.11;83.83;98483.14;2265554;78;20944;-82
2021/12/30 02:50:20;;;;;;;88.77;49.53;;;;;;;2.07;83.46;98475.70;2265395;79;21007;-83
2021/12/30 02:53:20;;;;;;;91.20;48.83;;;;;;;2.07;83.73;98477.00;2265417;78;21079;-82
2021/12/30 02:56:21;;;;;;;83.93;47.57;;;;;;;2.11;83.74;98471.55;2265876;78;21316;-83
2021/12/30 02:59:21;;;;;;;78.20;44.63;;;;;;;2.12;83.83;98472.91;2265545;78;21351;-83
2021/12/30 03:02:22;;;;;;;73.33;43.00;;;;;;;2.18;83.92;98468.40;2265559;78;20916;-82
2021/12/30 03:05:24;;;;;;;79.70;43.90;;;;;;;2.21;84.18;98469.80;2265341;78;20991;-79
2021/12/30 03:08:24;;;;;;;76.30;41.17;;;;;;;2.22;83.97;98471.15;2265074;78;20936;-80
2021/12/30 03:11:25;;;;;;;76.70;41.27;;;;;;;2.23;84.04;98474.60;2265703;78;20958;-78
2021/12/30 03:14:26;;;;;;;80.93;40.23;;;;;;;2.26;84.18;98475.13;2265478;78;21050;-83
2021/12/30 03:17:27;;;;;;;68.80;37.00;;;;;;;2.23;84.24;98478.47;2265682;78;20975;-82
2021/12/30 03:20:27;;;;;;;71.60;40.53;;;;;;;2.26;84.54;98483.73;2265351;78;20928;-83
2021/12/30 03:23:28;;;;;;;73.00;39.30;;;;;;;2.30;84.47;98493.34;2265931;78;20948;-80
2021/12/30 03:26:28;;;;;;;69.63;37.87;;;;;;;2.34;84.28;98500.77;2266261;78;20960;-82
2021/12/30 03:29:29;;;;;;;65.70;37.47;;;;;;;2.35;84.44;98504.69;2265499;78;20964;-82
2021/12/30 03:32:29;;;;;;;71.43;39.70;;;;;;;2.38;84.57;98509.08;2266016;78;21018;-82
2021/12/30 03:35:30;;;;;;;69.13;38.13;;;;;;;2.42;84.78;98508.38;2260503;79;20995;-79
2021/12/30 03:38:31;;;;;;;78.27;41.83;;;;;;;2.46;84.69;98511.13;2260418;79;20979;-83
2021/12/30 03:41:31;;;;;;;72.40;40.03;;;;;;;2.47;84.45;98519.33;2260619;78;20951;-80
2021/12/30 03:44:32;;;;;;;69.40;37.17;;;;;;;2.49;84.27;98535.72;2260876;78;20980;-81
2021/12/30 03:47:35;;;;;;;55.60;31.97;;;;;;;2.52;84.50;98538.42;2260210;78;21007;-82
2021/12/30 03:50:42;;;;;;;55.90;30.73;;;;;;;2.58;84.91;98544.63;2259818;79;21003;-79
2021/12/30 03:53:38;;;;;;;52.37;31.13;;;;;;;2.64;85.23;98540.62;2258060;79;21071;-81
2021/12/30 03:56:39;;;;;;;55.63;31.37;;;;;;;2.71;84.80;98535.28;2259308;79;21039;-82
2021/12/30 03:59:39;;;;;;;55.90;31.53;;;;;;;2.72;84.79;98546.94;2259223;78;20928;-80
2021/12/30 04:02:40;;;;;;;54.20;31.17;;;;;;;2.75;84.79;98544.89;2259598;78;20974;-83
2021/12/30 04:05:40;;;;;;;51.13;29.57;;;;;;;2.74;84.54;98543.13;2259123;79;20944;-80
2021/12/30 04:08:41;;;;;;;52.70;28.50;;;;;;;2.75;84.66;98551.33;2259197;78;21011;-80
2021/12/30 04:11:42;;;;;;;50.47;29.17;;;;;;;2.79;84.65;98541.60;2260547;79;20948;-79
2021/12/30 04:14:42;;;;;;;47.47;29.17;;;;;;;2.78;84.14;98543.72;2259476;78;20967;-81
2021/12/30 04:17:43;;;;;;;53.70;31.60;;;;;;;2.71;83.80;98540.44;2258906;78;20976;-81
2021/12/30 04:20:45;;;;;;;55.20;31.53;;;;;;;2.66;83.57;98540.67;2259094;78;21031;-82
2021/12/30 04:23:46;;;;;;;54.67;30.33;;;;;;;2.66;84.03;98545.83;2259127;79;21004;-82
2021/12/30 04:26:46;;;;;;;58.47;30.83;;;;;;;2.66;84.12;98552.27;2259098;79;21017;-81
2021/12/30 04:29:47;;;;;;;53.20;29.20;;;;;;;2.67;84.07;98559.19;2258450;79;21285;-83
2021/12/30 04:32:47;;;;;;;53.53;29.77;;;;;;;2.68;84.54;98566.97;2258303;79;20972;-83
2021/12/30 04:35:49;;;;;;;49.37;29.10;;;;;;;2.72;84.53;98564.98;2259078;78;20944;-84
2021/12/30 04:38:50;;;;;;;63.30;34.63;;;;;;;2.73;84.22;98578.74;2259407;78;21028;-82
2021/12/30 04:41:51;;;;;;;70.37;37.70;;;;;;;2.71;83.89;98581.67;2259223;78;21331;-82
2021/12/30 04:44:51;;;;;;;62.40;33.83;;;;;;;2.65;83.56;98586.19;2259592;78;20948;-84
2021/12/30 04:47:52;;;;;;;62.20;33.87;;;;;;;2.59;83.44;98589.78;2259453;78;20936;-82
2021/12/30 04:50:53;;;;;;;62.10;34.90;;;;;;;2.54;83.00;98596.04;2259166;78;20983;-82
2021/12/30 04:53:54;;;;;;;54.57;33.53;;;;;;;2.47;83.00;98600.48;2258671;78;21081;-83
2021/12/30 04:56:54;;;;;;;64.80;35.03;;;;;;;4.18;100.00;98593.84;2259660;78;21048;-81
2021/12/30 04:59:55;;;;;;;57.33;32.37;;;;;;;4.23;84.98;98586.24;2259046;78;20925;-81
2021/12/30 05:05:58;;;;;;;58.93;33.67;;;;;;;3.52;82.15;98586.86;2227527;79;21019;-81
2021/12/30 05:08:59;;;;;;;58.33;33.87;;;;;;;3.31;81.85;98587.34;2259689;78;20979;-81
2021/12/30 05:11:59;;;;;;;60.97;34.40;;;;;;;3.08;81.63;98587.80;2258922;79;20995;-82
2021/12/30 05:15:00;;;;;;;66.87;35.47;;;;;;;2.94;81.92;98598.89;2259117;79;21003;-82
2021/12/30 05:21:03;;;;;;;62.17;35.30;;;;;;;3.84;98.77;98595.71;2210465;80;20991;-84
2021/12/30 05:30:16;;;;;;;47.10;28.87;;;;;;;9.12;96.12;98548.37;2142592;83;21029;-84
2021/12/30 05:33:16;;;;;;;57.70;33.53;;;;;;;9.65;77.00;98544.24;2121415;81;21126;-80
2021/12/30 05:36:17;;;;;;;51.07;30.33;;;;;;;9.65;77.00;98544.24;2136847;83;21011;-82
2021/12/30 05:39:18;;;;;;;53.07;31.67;;;;;;;8.08;72.85;98551.95;2137179;83;20976;-81
2021/12/30 05:42:24;;;;;;;53.83;32.80;;;;;;;6.72;72.36;98553.55;2136962;83;21017;-81
2021/12/30 05:45:26;;;;;;;55.17;32.23;;;;;;;5.75;73.06;98570.12;2137479;83;21110;-81
2021/12/30 05:48:27;;;;;;;53.30;32.10;;;;;;;5.04;73.92;98587.08;2137682;83;20967;-81
2021/12/30 05:51:27;;;;;;;55.50;32.50;;;;;;;4.52;74.74;98599.72;2138589;83;20988;-83
2021/12/30 05:54:28;;;;;;;55.43;31.57;;;;;;;4.14;75.43;98607.48;2135411;83;21031;-82
2021/12/30 05:57:29;;;;;;;54.53;31.77;;;;;;;6.40;87.79;98582.63;2137559;83;21064;-83
2021/12/30 06:00:29;;;;;;;50.77;29.10;;;;;;;6.66;75.63;98561.19;2136437;83;20983;-82
2021/12/30 06:03:36;;;;;;;53.37;32.90;;;;;;;5.68;73.79;98567.78;2136696;83;21430;-82
2021/12/30 06:06:40;;;;;;;60.73;31.97;;;;;;;4.94;74.63;98580.75;2158996;80;20948;-83
2021/12/30 06:09:41;;;;;;;55.40;30.60;;;;;;;4.51;75.70;98594.08;2216963;80;21522;-81
2021/12/30 06:12:43;;;;;;;54.67;30.00;;;;;;;4.26;76.69;98605.31;2217313;80;20991;-83
2021/12/30 06:15:43;;;;;;;51.23;30.27;;;;;;;4.07;77.08;98610.70;2217315;80;20995;-83
2021/12/30 06:18:44;;;;;;;50.10;28.30;;;;;;;3.83;77.19;98610.33;2217592;80;20975;-81
2021/12/30 06:21:45;;;;;;;51.90;29.70;;;;;;;3.61;77.52;98616.86;2218249;80;20971;-83
2021/12/30 06:24:46;;;;;;;52.63;31.33;;;;;;;3.47;78.24;98611.63;2217635;80;21407;-82
2021/12/30 06:27:46;;;;;;;50.77;29.43;;;;;;;3.38;78.39;98621.58;2217715;80;21026;-83
2021/12/30 06:30:47;;;;;;;48.30;27.77;;;;;;;3.29;78.57;98626.41;2217059;80;20988;-82
2021/12/30 06:33:47;;;;;;;55.63;28.77;;;;;;;3.16;78.68;98632.39;2223171;78;20999;-80
2021/12/30 06:36:48;;;;;;;58.63;30.17;;;;;;;3.04;79.15;98640.96;2247527;78;20940;-83
2021/12/30 06:39:48;;;;;;;50.30;28.77;;;;;;;2.99;79.38;98642.48;2248993;79;20937;-82
2021/12/30 06:42:52;;;;;;;53.53;31.07;;;;;;;2.86;79.24;98648.88;2249500;79;21031;-81
2021/12/30 06:45:52;;;;;;;49.80;27.60;;;;;;;2.76;79.61;98653.61;2248362;79;20956;-81
2021/12/30 06:48:53;;;;;;;52.70;29.30;;;;;;;2.66;79.82;98660.09;2249971;78;21367;-83
2021/12/30 06:51:54;;;;;;;53.77;32.10;;;;;;;2.62;79.97;98657.34;2249415;78;20948;-83
2021/12/30 06:54:55;;;;;;;68.10;37.57;;;;;;;2.57;80.15;98658.41;2248856;78;20972;-83
2021/12/30 06:57:55;;;;;;;59.40;31.70;;;;;;;2.53;80.33;98655.23;2249371;78;21023;-82
2021/12/30 07:00:57;;;;;;;52.47;28.03;;;;;;;2.48;80.49;98658.92;2249792;78;20964;-82
2021/12/30 07:03:58;;;;;;;51.63;29.90;;;;;;;2.45;80.65;98658.80;2248678;78;21031;-84
2021/12/30 07:06:58;;;;;;;53.07;29.07;;;;;;;2.43;80.88;98652.70;2247926;79;21342;-82
2021/12/30 07:10:05;;;;;;;57.00;30.90;;;;;;;2.41;80.80;98647.90;2247919;79;20936;-85
2021/12/30 07:13:06;;;;;;;53.37;29.43;;;;;;;2.40;81.01;98655.16;2248022;78;21022;-86
2021/12/30 07:16:06;;;;;;;52.77;29.30;;;;;;;2.39;81.20;98657.26;2248013;78;21043;-83
2021/12/30 07:19:07;;;;;;;51.33;29.17;;;;;;;2.37;81.44;98657.61;2248847;79;20968;-83
2021/12/30 07:22:08;;;;;;;50.37;29.73;;;;;;;2.39;81.57;98653.80;2249102;79;21705;-82
2021/12/30 07:25:08;;;;;;;47.37;28.73;;;;;;;2.42;81.84;98654.81;2249211;79;21395;-83
2021/12/30 07:28:09;;;;;;;49.33;30.17;;;;;;;2.45;81.81;98652.36;2248710;79;20998;-83
2021/12/30 07:31:09;;;;;;;72.37;39.03;;;;;;;2.47;81.93;98644.28;2248581;78;21007;-77
2021/12/30 07:34:10;;;;;;;54.93;31.30;;;;;;;2.52;81.89;98653.48;2250448;78;20948;-77
2021/12/30 07:37:14;;;;;;;51.20;28.00;;;;;;;2.60;82.05;98654.70;2259725;78;20948;-85
2021/12/30 07:40:13;;;;;;;52.60;30.17;;;;;;;2.69;81.71;98667.07;2259683;78;21003;-83
2021/12/30 07:43:13;;;;;;;57.13;30.33;;;;;;;2.71;81.60;98670.18;2259344;79;20956;-82
2021/12/30 07:46:14;;;;;;;54.50;32.40;;;;;;;2.76;81.41;98681.55;2258762;78;21018;-81
2021/12/30 07:49:15;;;;;;;57.07;32.97;;;;;;;2.76;81.71;98679.38;2259061;79;20928;-83
2021/12/30 07:52:15;;;;;;;55.97;32.93;;;;;;;2.79;81.86;98693.69;2259485;78;20999;-82
2021/12/30 07:55:16;;;;;;;62.57;35.43;;;;;;;2.85;82.21;98686.19;2258941;78;21026;-82
2021/12/30 07:58:16;;;;;;;69.67;36.87;;;;;;;2.97;82.58;98681.92;2259925;78;21038;-82
2021/12/30 08:01:17;;;;;;;56.13;33.67;;;;;;;3.05;82.52;98685.68;2259959;78;21069;-82
2021/12/30 08:04:17;;;;;;;57.73;34.80;;;;;;;3.14;82.71;98684.33;2259548;78;21315;-82
2021/12/30 08:07:22;;;;;;;54.37;32.60;;;;;;;3.29;82.96;98679.28;2259999;79;20999;-82
2021/12/30 08:10:22;;;;;;;60.27;33.90;;;;;;;3.41;82.86;98663.85;2259354;79;20982;-80
2021/12/30 08:13:24;;;;;;;56.37;32.40;;;;;;;3.50;82.16;98658.18;2258824;78;21019;-81
2021/12/30 08:16:27;;;;;;;54.73;31.12;;;;;;;3.54;81.50;98652.72;2227394;79;20981;-82
2021/12/30 08:19:27;;;;;;;56.70;33.93;;;;;;;3.60;81.35;98654.23;2259419;78;20983;-84
2021/12/30 08:22:28;;;;;;;56.97;32.87;;;;;;;3.66;82.07;98647.58;2258891;79;20951;-82
2021/12/30 08:25:28;;;;;;;51.53;32.23;;;;;;;3.79;81.72;98651.06;2258530;78;20994;-84
2021/12/30 08:28:29;;;;;;;50.13;31.53;;;;;;;3.83;81.77;98655.92;2259812;79;21360;-81
2021/12/30 08:31:30;;;;;;;49.17;29.20;;;;;;;3.82;82.03;98657.63;2260034;79;21355;-81
2021/12/30 08:34:30;;;;;;;45.47;28.87;;;;;;;3.88;82.66;98660.84;2259977;78;21023;-81
2021/12/30 08:37:31;;;;;;;46.87;30.00;;;;;;;3.94;82.94;98670.50;2259389;78;20943;-82
2021/12/30 08:40:31;;;;;;;50.50;30.97;;;;;;;3.97;82.98;98671.48;2259265;78;20975;-80
2021/12/30 08:43:31;;;;;;;41.77;27.23;;;;;;;4.07;82.82;98675.27;2259375;78;20944;-81
2021/12/30 08:46:32;;;;;;;46.43;27.80;;;;;;;4.18;82.79;98675.22;2258724;78;21477;-81
2021/12/30 08:49:32;;;;;;;44.30;26.93;;;;;;;4.27;82.69;98663.91;2259899;78;20936;-82
2021/12/30 08:52:33;;;;;;;41.50;25.97;;;;;;;4.40;82.61;98667.40;2260119;78;20971;-80
2021/12/30 08:55:33;;;;;;;43.20;25.93;;;;;;;4.53;82.55;98664.80;2259960;78;20991;-80
2021/12/30 08:58:34;;;;;;;40.70;25.67;;;;;;;4.67;82.52;98663.95;2259867;78;20960;-80
2021/12/30 09:01:34;;;;;;;38.17;25.43;;;;;;;4.80;82.22;98669.98;2260146;78;20995;-81
2021/12/30 09:04:35;;;;;;;42.03;25.27;;;;;;;4.91;81.92;98667.31;2260357;78;21694;-81
2021/12/30 09:07:35;;;;;;;42.43;27.57;;;;;;;5.00;81.70;98674.48;2261332;78;20959;-81
2021/12/30 09:10:40;;;;;;;41.77;26.50;;;;;;;5.06;81.60;98683.30;2261642;78;21327;-82
2021/12/30 09:13:38;;;;;;;45.97;25.17;;;;;;;5.06;81.30;98686.31;2260363;79;21023;-82
2021/12/30 09:16:39;;;;;;;41.80;26.27;;;;;;;4.98;81.29;98679.60;2260615;78;20963;-83
2021/12/30 09:19:39;;;;;;;40.20;26.07;;;;;;;4.95;81.42;98683.80;2260891;78;20932;-84
2021/12/30 09:22:40;;;;;;;40.27;26.60;;;;;;;4.95;81.25;98689.86;2260166;78;20912;-83
2021/12/30 09:25:40;;;;;;;47.83;28.67;;;;;;;5.00;81.23;98685.70;2261014;78;20948;-83
2021/12/30 09:28:41;;;;;;;39.67;24.77;;;;;;;5.15;80.94;98677.53;2260669;78;20924;-82
2021/12/30 09:31:41;;;;;;;40.27;26.03;;;;;;;5.28;80.69;98678.40;2260324;78;20920;-81
2021/12/30 09:34:42;;;;;;;43.03;25.83;;;;;;;5.35;80.57;98680.34;2257701;79;21039;-83
2021/12/30 09:37:43;;;;;;;44.20;26.30;;;;;;;5.44;80.43;98679.73;2250107;78;20980;-82
2021/12/30 09:40:44;;;;;;;46.80;27.20;;;;;;;5.52;80.26;98674.77;2227268;79;21368;-83
2021/12/30 09:43:44;;;;;;;42.60;25.70;;;;;;;5.60;80.11;98678.45;2248988;78;21446;-83
2021/12/30 09:46:45;;;;;;;45.07;27.57;;;;;;;5.72;80.06;98674.92;2248993;78;20956;-83
2021/12/30 09:49:47;;;;;;;42.63;26.97;;;;;;;5.80;79.74;98680.31;2249068;79;20984;-82
2021/12/30 09:52:48;;;;;;;45.10;26.43;;;;;;;5.75;79.31;98676.30;2249659;78;21012;-85
2021/12/30 09:55:48;;;;;;;41.37;26.60;;;;;;;5.68;79.11;98671.38;2250396;78;20968;-84
2021/12/30 09:58:49;;;;;;;42.67;26.83;;;;;;;5.65;79.32;98675.58;2249933;78;20916;-84
2021/12/30 10:01:49;;;;;;;43.23;27.50;;;;;;;5.63;79.33;98679.42;2249002;78;20971;-82
2021/12/30 10:04:50;;;;;;;41.40;25.90;;;;;;;5.64;79.29;98675.13;2248918;78;20975;-82
2021/12/30 10:07:50;;;;;;;46.80;27.70;;;;;;;5.58;79.13;98677.13;2248770;78;21308;-83
2021/12/30 10:10:51;;;;;;;48.77;27.60;;;;;;;5.61;79.52;98674.62;2249204;78;20944;-84
2021/12/30 10:13:52;;;;;;;41.77;26.50;;;;;;;5.66;79.37;98685.11;2249727;78;21064;-84
2021/12/30 10:16:52;;;;;;;36.53;25.27;;;;;;;5.68;79.26;98685.61;2249285;78;21469;-84
2021/12/30 10:19:53;;;;;;;38.90;26.93;;;;;;;5.65;79.16;98683.35;2249205;79;21404;-84
2021/12/30 10:22:53;;;;;;;38.70;25.47;;;;;;;5.59;79.28;98683.18;2248792;78;20937;-84
2021/12/30 10:25:54;;;;;;;45.93;29.17;;;;;;;5.57;79.37;98675.78;2249242;78;20929;-82
2021/12/30 10:28:54;;;;;;;59.33;37.00;;;;;;;5.55;79.45;98668.39;2249725;78;20965;-82
2021/12/30 10:31:55;;;;;;;42.20;26.70;;;;;;;5.58;79.54;98668.48;2248424;78;20947;-84
2021/12/30 10:34:56;;;;;;;41.93;26.93;;;;;;;5.58;79.45;98671.94;2251439;78;21007;-84
2021/12/30 10:37:56;;;;;;;38.77;26.03;;;;;;;5.62;79.56;98665.14;2259024;78;20924;-83
2021/12/30 10:40:56;;;;;;;40.20;25.87;;;;;;;5.70;79.47;98665.81;2259575;78;21739;-82
2021/12/30 10:43:57;;;;;;;39.17;26.47;;;;;;;5.78;79.62;98666.45;2258768;78;21324;-82
2021/12/30 10:46:58;;;;;;;41.40;26.43;;;;;;;5.85;79.62;98663.19;2258816;78;21018;-83
2021/12/30 10:49:58;;;;;;;46.90;30.47;;;;;;;5.92;79.69;98662.14;2258918;78;20942;-81
2021/12/30 10:52:59;;;;;;;48.07;28.63;;;;;;;5.92;79.80;98660.84;2258528;78;20991;-83
2021/12/30 10:55:59;;;;;;;40.83;28.07;;;;;;;5.98;79.87;98658.83;2259448;78;20951;-82
2021/12/30 10:59:00;;;;;;;48.73;28.53;;;;;;;6.01;79.74;98660.21;2259512;78;21046;-82
2021/12/30 11:02:00;;;;;;;46.80;28.53;;;;;;;6.05;79.96;98655.57;2259117;78;20943;-81
2021/12/30 11:05:04;;;;;;;45.70;29.33;;;;;;;6.09;79.97;98665.63;2259335;78;20948;-82
2021/12/30 11:08:04;;;;;;;45.90;29.30;;;;;;;6.08;80.19;98671.65;2259051;78;21075;-82
2021/12/30 11:11:04;;;;;;;44.70;29.27;;;;;;;5.99;80.21;98672.25;2259338;78;21046;-81
2021/12/30 11:14:05;;;;;;;51.00;31.17;;;;;;;5.92;80.63;98667.31;2259755;78;21019;-82
2021/12/30 11:17:07;;;;;;;44.23;27.90;;;;;;;5.89;81.00;98667.62;2259828;78;21053;-82
2021/12/30 11:20:07;;;;;;;43.17;27.13;;;;;;;5.89;81.13;98664.64;2260368;79;21000;-82
2021/12/30 11:23:08;;;;;;;44.47;27.13;;;;;;;5.87;81.33;98657.22;2260540;79;20975;-82
2021/12/30 11:26:09;;;;;;;43.50;28.43;;;;;;;5.83;81.44;98659.27;2260271;79;20975;-82
2021/12/30 11:29:09;;;;;;;44.33;28.40;;;;;;;5.82;81.54;98658.80;2260571;78;20960;-83
2021/12/30 11:32:10;;;;;;;39.20;27.73;;;;;;;5.90;82.09;98655.16;2261797;78;20971;-84
2021/12/30 11:35:10;;;;;;;41.17;26.60;;;;;;;5.92;82.08;98651.77;2257690;78;21368;-83
2021/12/30 11:38:11;;;;;;;45.73;27.57;;;;;;;5.90;82.15;98653.86;2249710;78;21442;-83
2021/12/30 11:41:11;;;;;;;43.63;27.60;;;;;;;5.81;82.19;98645.81;2250325;79;20987;-83
2021/12/30 11:44:12;;;;;;;46.17;27.73;;;;;;;5.80;82.23;98646.23;2249879;78;20944;-83
2021/12/30 11:47:12;;;;;;;40.63;26.40;;;;;;;5.80;82.47;98637.16;2249028;78;20991;-84
2021/12/30 11:50:13;;;;;;;38.37;26.17;;;;;;;5.91;82.87;98628.00;2250234;78;20924;-85
2021/12/30 11:53:14;;;;;;;37.57;25.33;;;;;;;5.97;82.42;98622.10;2249629;78;20975;-84
2021/12/30 11:56:14;;;;;;;40.47;25.73;;;;;;;5.95;82.49;98621.19;2249637;78;21048;-84
2021/12/30 11:59:15;;;;;;;34.10;23.07;;;;;;;5.92;82.61;98621.11;2248955;78;21022;-85
2021/12/30 12:02:16;;;;;;;41.83;26.90;;;;;;;5.87;82.79;98635.61;2249698;78;20980;-83
2021/12/30 12:05:16;;;;;;;36.93;24.17;;;;;;;5.83;82.83;98627.30;2249138;78;21705;-84
2021/12/30 12:08:17;;;;;;;41.43;26.30;;;;;;;5.84;82.90;98617.40;2249398;78;20980;-82
2021/12/30 12:11:17;;;;;;;36.90;24.50;;;;;;;5.85;83.04;98619.16;2248649;78;20977;-83
2021/12/30 12:14:17;;;;;;;37.93;24.60;;;;;;;5.87;82.98;98629.14;2248842;78;20971;-84
2021/12/30 12:17:19;;;;;;;38.33;24.70;;;;;;;5.78;83.13;98635.36;2248454;79;21017;-83
2021/12/30 12:20:20;;;;;;;37.87;24.47;;;;;;;5.73;83.44;98632.65;2248972;78;20975;-82
2021/12/30 12:23:21;;;;;;;40.03;27.23;;;;;;;5.67;83.31;98635.95;2248751;78;20999;-82
2021/12/30 12:26:23;;;;;;;36.40;26.10;;;;;;;5.62;83.66;98640.54;2248319;78;20932;-84
2021/12/30 12:29:23;;;;;;;44.00;30.67;;;;;;;5.61;84.02;98637.08;2248618;79;20971;-83
2021/12/30 12:32:24;;;;;;;46.63;31.77;;;;;;;5.57;83.84;98631.34;2248604;78;21300;-84
2021/12/30 12:35:27;;;;;;;45.53;28.67;;;;;;;5.62;84.11;98641.42;2248351;78;21023;-83
2021/12/30 12:38:27;;;;;;;41.03;27.60;;;;;;;5.74;83.90;98638.29;2248844;78;20936;-84
2021/12/30 12:41:28;;;;;;;35.53;24.50;;;;;;;5.71;83.92;98642.09;2249549;78;21039;-83
2021/12/30 12:44:29;;;;;;;37.60;25.47;;;;;;;5.66;84.25;98639.38;2249405;78;20944;-85
2021/12/30 12:47:29;;;;;;;33.07;23.70;;;;;;;5.63;84.33;98639.28;2248877;78;21032;-83
2021/12/30 12:50:30;;;;;;;30.83;22.03;;;;;;;5.66;84.59;98633.31;2249248;78;21729;-83
2021/12/30 12:53:30;;;;;;;29.53;20.63;;;;;;;5.66;84.97;98632.90;2249472;78;21043;-85
2021/12/30 12:56:31;;;;;;;31.23;22.67;;;;;;;5.75;84.81;98633.57;2249379;78;20972;-85
2021/12/30 12:59:31;;;;;;;31.00;21.40;;;;;;;5.78;84.76;98634.95;2249354;78;20916;-83
2021/12/30 13:02:32;;;;;;;26.90;19.03;;;;;;;5.79;85.15;98644.89;2249583;78;20948;-85
2021/12/30 13:05:35;;;;;;;31.47;19.57;;;;;;;5.72;85.27;98644.72;2247690;78;20963;-85
2021/12/30 13:08:36;;;;;;;31.73;19.83;;;;;;;5.65;85.43;98644.09;2247958;78;20944;-85
2021/12/30 13:11:36;;;;;;;32.10;21.63;;;;;;;5.60;85.90;98649.56;2247700;78;20932;-85
2021/12/30 13:14:37;;;;;;;28.13;21.73;;;;;;;5.57;86.50;98658.53;2247798;78;20951;-84
2021/12/30 13:17:37;;;;;;;31.77;22.60;;;;;;;5.55;87.18;98661.91;2248341;78;21089;-84
2021/12/30 13:20:39;;;;;;;28.53;21.00;;;;;;;5.57;87.83;98654.66;2248564;78;20987;-84
2021/12/30 13:23:39;;;;;;;29.73;21.70;;;;;;;5.61;87.49;98655.61;2248199;78;21749;-83
2021/12/30 13:26:40;;;;;;;30.20;19.87;;;;;;;5.61;88.31;98660.37;2248287;78;20968;-82
2021/12/30 13:29:40;;;;;;;26.80;19.63;;;;;;;5.58;89.26;98662.00;2247904;78;20920;-85
2021/12/30 13:32:41;;;;;;;32.33;21.93;;;;;;;5.55;90.18;98674.44;2248162;78;20955;-84
2021/12/30 13:35:42;;;;;;;32.80;18.63;;;;;;;5.54;88.97;98684.34;2251135;78;20964;-84
2021/12/30 13:38:42;;;;;;;23.83;18.10;;;;;;;5.53;90.23;98689.47;2259908;78;20939;-83
2021/12/30 13:41:42;;;;;;;31.93;19.70;;;;;;;5.52;89.98;98691.19;2259058;78;20916;-83
2021/12/30 13:44:43;;;;;;;34.33;20.30;;;;;;;5.51;91.31;98698.91;2258868;78;21378;-83
2021/12/30 13:47:44;;;;;;;32.60;20.27;;;;;;;5.48;91.13;98688.46;2259144;78;20998;-81
2021/12/30 13:50:44;;;;;;;33.90;22.90;;;;;;;5.46;91.81;98690.13;2260066;78;20931;-83
2021/12/30 13:53:45;;;;;;;40.93;23.90;;;;;;;5.43;91.96;98699.97;2259790;79;21014;-85
2021/12/30 13:56:45;;;;;;;36.67;21.60;;;;;;;5.38;91.81;98704.14;2260913;78;20964;-83
2021/12/30 13:59:46;;;;;;;32.77;20.30;;;;;;;5.38;91.71;98691.20;2259934;78;20924;-83
2021/12/30 14:02:47;;;;;;;38.60;24.20;;;;;;;5.38;92.84;98692.49;2260972;78;21435;-83
2021/12/30 14:05:48;;;;;;;41.67;26.03;;;;;;;5.36;91.95;98682.51;2261128;78;21308;-82
2021/12/30 14:08:49;;;;;;;42.03;27.03;;;;;;;5.33;92.59;98691.06;2261123;78;21016;-85
2021/12/30 14:11:49;;;;;;;53.20;33.20;;;;;;;5.32;93.21;98692.30;2260952;78;20951;-85
2021/12/30 14:14:50;;;;;;;39.73;27.37;;;;;;;5.34;92.14;98694.11;2260318;78;20976;-84
2021/12/30 14:17:50;;;;;;;39.10;24.27;;;;;;;5.36;92.23;98689.86;2259774;78;21026;-86
2021/12/30 14:20:51;;;;;;;35.93;23.53;;;;;;;5.36;92.12;98683.38;2259124;78;20928;-82
2021/12/30 14:23:53;;;;;;;34.47;22.50;;;;;;;5.36;93.36;98703.22;2258256;78;20996;-84
2021/12/30 14:26:53;;;;;;;38.23;23.43;;;;;;;5.34;92.89;98704.87;2258258;78;20996;-84
2021/12/30 14:29:54;;;;;;;52.83;29.17;;;;;;;5.33;93.43;98696.23;2258857;78;20952;-87
2021/12/30 14:32:54;;;;;;;39.53;22.10;;;;;;;5.35;92.65;98701.45;2258798;78;20943;-82
2021/12/30 14:35:55;;;;;;;40.90;22.57;;;;;;;5.35;92.81;98696.28;2259786;78;20983;-85
2021/12/30 14:38:55;;;;;;;32.33;20.77;;;;;;;5.32;92.21;98694.48;2260505;78;20955;-83
2021/12/30 14:41:56;;;;;;;44.23;25.30;;;;;;;5.33;92.30;98697.95;2260434;78;21436;-84